Flight Track Log - Related Links

Times and Time Zones

All times are in EDT time to prevent confusion due to time zone crossing. See the N30VP flight status page for this flight to view local times or setup timezone preferences in your user account.

Time Position Orientation Groundspeed Altitude Reporting Facility
EDT Latitude Longitude Course Direction KTS MPH feet Rate Location/Type
Mon 04:22:40 PM 34.9789 -80.0919 261° West 178 205 2,800  Level Atlanta Center
Mon 04:23:47 PM 34.9672 -80.1836 261° West 247 284 7,400 3,672 Climbing Atlanta Center
Mon 04:24:54 PM 34.9550 -80.2603 259° West 219 252 11,000 2,953 Climbing Atlanta Center
Mon 04:25:55 PM 34.9469 -80.3392 263° West 241 277 13,700 1,021 Climbing Atlanta Center
Mon 04:28:02 PM 34.8811 -80.5392 248° West 336 387 14,200 1,330 Climbing Washington Center
Mon 04:29:00 PM 34.8189 -80.6289 230° Southwest 336 387 17,800 3,315 Climbing Washington Center
Mon 04:30:25 PM 34.7442 -80.7272 227° Southwest 430 495 22,100 2,152 Climbing Jacksonville Center
Mon 04:31:25 PM 34.6786 -80.8022 223° Southwest 363 418 23,000 450 Climbing Jacksonville Center
Mon 04:32:25 PM 34.5728 -80.8300 192° South 357 411 23,000  Level Jacksonville Center
Mon 04:33:25 PM 34.4689 -80.8653 196° South 373 429 23,000 1,150 Level Jacksonville Center
Mon 04:34:25 PM 34.3672 -80.8953 194° South 379 436 25,300 1,950 Climbing Jacksonville Center
Mon 04:35:25 PM 34.2697 -80.9250 194° South 374 430 26,900 1,850 Climbing Jacksonville Center
Mon 04:36:25 PM 34.1742 -80.9550 195° South 374 430 29,000 1,550 Climbing Jacksonville Center
Mon 04:37:25 PM 34.0744 -80.9872 195° South 368 423 30,000 750 Climbing Jacksonville Center
Mon 04:38:25 PM 33.9728 -81.0169 194° South 376 433 30,500 3,000 Climbing Jacksonville Center
Mon 04:39:25 PM 33.8583 -81.0494 193° South 381 438 36,000 1,450 Climbing Jacksonville Center
Mon 04:40:25 PM 33.7567 -81.0789 194° South 386 444 33,400 -1,000 Descending Jacksonville Center
Mon 04:41:25 PM 33.6653 -81.1108 196° South 381 438 34,000 800 Climbing Jacksonville Center
Mon 04:42:25 PM 33.5633 -81.1428 195° South 381 438 35,000 1,000 Climbing Jacksonville Center
Mon 04:43:25 PM 33.4636 -81.1722 194° South 375 432 36,000 500 Climbing Jacksonville Center
Mon 04:44:25 PM 33.3619 -81.2039 195° South 375 432 36,000  Level Jacksonville Center
Mon 04:45:25 PM 33.2600 -81.2358 195° South 375 432 36,000  Level Jacksonville Center
Mon 04:46:25 PM 33.1581 -81.2650 193° South 375 432 36,000  Level Jacksonville Center
Mon 04:47:25 PM 33.0542 -81.2989 195° South 375 432 36,000  Level Jacksonville Center
Mon 04:48:25 PM 32.9522 -81.3306 195° South 375 432 36,000  Level Jacksonville Center
Mon 04:49:25 PM 32.8483 -81.3569 192° South 375 432 36,000  Level Jacksonville Center
Mon 04:50:25 PM 32.7442 -81.3908 195° South 375 432 36,000  Level Jacksonville Center
Mon 04:51:25 PM 32.6339 -81.4247 195° South 368 423 36,000  Level Jacksonville Center
Mon 04:52:25 PM 32.5322 -81.4586 196° South 375 432 36,000  Level Jacksonville Center
Mon 04:53:25 PM 32.4383 -81.4844 193° South 380 437 36,000  Level Jacksonville Center
Mon 04:54:25 PM 32.3219 -81.5158 193° South 388 447 36,000  Level Jacksonville Center
Mon 04:55:25 PM 32.2158 -81.5494 195° South 393 452 36,000  Level Jacksonville Center
Mon 04:56:26 PM 32.1097 -81.5781 193° South 393 452 36,000  Level Jacksonville Center
Mon 04:57:25 PM 32.0033 -81.6089 194° South 392 451 36,000  Level Jacksonville Center
Mon 04:58:25 PM 31.9097 -81.6369 194° South 392 451 36,000  Level Jacksonville Center
Mon 04:59:25 PM 31.7953 -81.6703 194° South 392 451 36,000  Level Jacksonville Center
Mon 05:00:25 PM 31.6892 -81.7011 194° South 392 451 36,000  Level Jacksonville Center
Mon 05:01:25 PM 31.5911 -81.7267 193° South 398 458 36,000  Level Jacksonville Center
Mon 05:02:25 PM 31.4747 -81.7622 195° South 393 452 36,000  Level Jacksonville Center
Mon 05:03:25 PM 31.3789 -81.7903 194° South 393 452 36,000  Level Jacksonville Center
Mon 05:04:25 PM 31.2725 -81.8231 195° South 393 452 36,000  Level Jacksonville Center
Mon 05:05:25 PM 31.1664 -81.8533 194° South 393 452 36,000 -50 Level Jacksonville Center
Mon 05:06:25 PM 31.0600 -81.8836 194° South 393 452 35,900  Descending Jacksonville Center
Mon 05:07:25 PM 30.9517 -81.9164 195° South 393 452 36,000 50 Climbing Jacksonville Center
Mon 05:08:25 PM 30.8433 -81.9464 193° South 393 452 36,000  Level Jacksonville Center
Mon 05:09:25 PM 30.7350 -81.9789 194° South 393 452 36,000  Level Jacksonville Center
Mon 05:10:25 PM 30.6267 -82.0089 193° South 398 458 36,000  Level Jacksonville Center
Mon 05:11:25 PM 30.5164 -82.0342 191° South 398 458 36,000  Level Jacksonville Center
Mon 05:12:25 PM 30.4058 -82.0639 193° South 403 464 36,000  Level Jacksonville Center
Mon 05:13:25 PM 30.2953 -82.0986 195° South 408 470 36,000  Level Jacksonville Center
Mon 05:14:25 PM 30.1847 -82.1236 191° South 413 475 36,000  Level Jacksonville Center
Mon 05:15:25 PM 30.0678 -82.1078 173° South 413 475 36,000  Level Jacksonville Center
Mon 05:16:25 PM 29.9361 -82.0847 171° South 427 491 36,000  Level Jacksonville Center
Mon 05:17:25 PM 29.8211 -82.0619 170° South 427 491 36,000  Level Jacksonville Center
Mon 05:18:25 PM 29.7144 -82.0364 168° South 427 491 36,000 -450 Level Jacksonville Center
Mon 05:19:25 PM 29.5808 -82.0136 172° South 433 498 35,100 -500 Descending Jacksonville Center
Mon 05:20:25 PM 29.4617 -81.9908 171° South 433 498 35,000 -50 Descending Jacksonville Center
Mon 05:21:25 PM 29.3444 -81.9683 171° South 433 498 35,000  Level Jacksonville Center
Mon 05:22:25 PM 29.2275 -81.9456 170° South 433 498 35,000 -477 Level Jacksonville Center
Mon 05:23:56 PM 29.0506 -81.9031 168° South 432 497 33,800 -1,192 Descending Miami Center
Mon 05:24:56 PM 28.9325 -81.8811 171° South 432 497 32,000 -1,750 Descending Miami Center
Mon 05:25:56 PM 28.8267 -81.8622 171° South 423 487 30,300 -1,700 Descending Miami Center
Mon 05:26:56 PM 28.7064 -81.8425 172° South 428 493 28,600 -1,650 Descending Miami Center
Mon 05:27:56 PM 28.5906 -81.8161 169° South 428 493 27,000 -800 Descending Miami Center
Mon 05:28:56 PM 28.4747 -81.7850 167° South 428 493 27,000  Level Miami Center
Mon 05:29:56 PM 28.3592 -81.7539 167° South 428 493 27,000  Level Miami Center
Mon 05:30:56 PM 28.2392 -81.7206 166° South 435 501 27,000 -550 Level Miami Center
Mon 05:31:56 PM 28.1236 -81.6872 166° South 435 501 25,900 -1,400 Descending Miami Center
Mon 05:32:56 PM 28.0047 -81.6822 178° South 430 495 24,200 -1,200 Descending Miami Center
Mon 05:33:56 PM 27.8931 -81.7125 193° South 414 476 23,500 -950 Descending Miami Center
Mon 05:34:56 PM 27.7750 -81.7475 195° South 408 470 22,300 -1,150 Descending Miami Center
Mon 05:35:56 PM 27.6681 -81.7664 189° South 398 458 21,200 -1,150 Descending Miami Center
Mon 05:36:56 PM 27.5678 -81.7667 180° South 393 452 20,000 -1,300 Descending Miami Center
Mon 05:37:56 PM 27.4592 -81.7667 180° South 393 452 18,600 -1,450 Descending Miami Center
Mon 05:38:56 PM 27.3425 -81.7664 180° South 393 452 17,100 -1,500 Descending Miami Center
Mon 05:39:56 PM 27.2381 -81.7689 181° South 386 444 15,600 -1,500 Descending Miami Center
Mon 05:40:56 PM 27.1336 -81.7692 180° South 386 444 14,100 -1,400 Descending Miami Center
Mon 05:41:56 PM 27.0250 -81.7694 180° South 386 444 12,800 -1,250 Descending Miami Center
Mon 05:42:56 PM 26.9228 -81.7719 181° South 386 444 11,600 -1,150 Descending Miami Center
Mon 05:43:56 PM 26.8372 -81.7731 181° South 386 444 10,500 -800 Descending Miami Center
Mon 05:44:56 PM 26.7139 -81.7725 180° South 375 432 10,000 -400 Descending Miami Center
Mon 05:45:56 PM 26.6261 -81.7736 181° South 351 404 9,700 -1,100 Descending Miami Center
Mon 05:46:56 PM 26.5511 -81.7728 179° South 308 354 7,800 -1,950 Descending Miami Center
Mon 05:47:56 PM 26.4758 -81.7742 181° South 283 326 5,800 -1,950 Descending Miami Center
Mon 05:48:56 PM 26.4050 -81.7736 180° South 263 303 3,900 -1,850 Descending Miami Center
Mon 05:49:56 PM 26.3317 -81.7750 181° South 257 296 2,100 -1,800 Descending Miami Center
Mon 05:51:00 PM 26.2214 -81.7699 178° South  Level FlightAware Approximate
Mon 05:58:00 PM 26.1500 -81.7667 180° South  Level FlightAware Approximate
Mon 05:59:00 PM 26.2470 -81.8067 180° South  Level Estimated
Mon 06:00:00 PM 26.1500 -81.7667 180° South  Level FlightAware Approximate
Mon 06:01:00 PM 26.2470 -81.8067 180° South  Level Estimated
Mon 06:02:00 PM 26.1500 -81.7667 180° South  Level FlightAware Approximate
Mon 06:03:00 PM 26.2470 -81.8067 180° South  Level Estimated
Mon 06:04:00 PM 26.1500 -81.7667 180° South  Level FlightAware Approximate
Mon 06:05:00 PM 26.2470 -81.8067 180° South  Level Estimated
Mon 06:06:00 PM 26.1500 -81.7667 180° South  Level FlightAware Approximate
Mon 06:07:00 PM 26.2470 -81.8067 180° South  Level Estimated
Mon 06:08:00 PM 26.1500 -81.7667 180° South  Level FlightAware Approximate
Mon 06:09:00 PM 26.2470 -81.8067 180° South  Level Estimated
Mon 06:10:00 PM 26.1500 -81.7667 180° South  Level FlightAware Approximate

Login

Don't have an account? Register now (free) for customized features, flight alerts, and more!